This is the latest recevied weather packets stored in our database for station/object F5PQL-4. If no packets are shown the sender has not sent any weather packets the latest 10 day(s).
| Time | Temp. | Humidity | Pressure | Rain* | Wind** | Luminosity | Snow |
|---|---|---|---|---|---|---|---|
| 1777542688 | 33.89° C | 22% | 1018.8 hPa | - | - | - | - |
| 1777541788 | 33.33° C | 23% | 1018.9 hPa | - | - | - | - |
| 1777540887 | 30° C | 26% | 1019 hPa | - | - | - | - |
| 1777539984 | 30.56° C | 25% | 1019 hPa | - | - | - | - |
| 1777539084 | 30° C | 27% | 1019.1 hPa | - | - | - | - |
| 1777538183 | 28.89° C | 27% | 1019 hPa | - | - | - | - |
| 1777537283 | 29.44° C | 25% | 1019 hPa | - | - | - | - |
| 1777536383 | 29.44° C | 27% | 1019 hPa | - | - | - | - |
| 1777535483 | 27.78° C | 29% | 1018.9 hPa | - | - | - | - |
| 1777534583 | 28.33° C | 29% | 1018.9 hPa | - | - | - | - |
| 1777533683 | 28.89° C | 29% | 1018.7 hPa | - | - | - | - |
| 1777532782 | 26.67° C | 35% | 1018.8 hPa | - | - | - | - |
| 1777531882 | 26.67° C | 37% | 1018.8 hPa | - | - | - | - |
| 1777530982 | 25° C | 45% | 1018.6 hPa | - | - | - | - |
| 1777530082 | 22.22° C | 49% | 1018.5 hPa | - | - | - | - |
| 1777529186 | 22.22° C | 51% | 1018.4 hPa | - | - | - | - |
| 1777528286 | 20° C | 56% | 1018.4 hPa | - | - | - | - |
| 1777527386 | 20° C | 57% | 1018.3 hPa | - | - | - | - |
| 1777526486 | 18.33° C | 61% | 1018 hPa | - | - | - | - |
| 1777525586 | 15.56° C | 66% | 1018 hPa | - | - | - | - |
| 1777524686 | 15° C | 66% | 1017.8 hPa | - | - | - | - |
| 1777523786 | 14.44° C | 68% | 1017.8 hPa | - | - | - | - |
| 1777522886 | 14.44° C | 67% | 1017.7 hPa | - | - | - | - |
| 1777521985 | 14.44° C | 67% | 1017.8 hPa | - | - | - | - |
| 1777521085 | 14.44° C | 65% | 1017.8 hPa | - | - | - | - |
* Rain since midnight (hover to see other rain measurements)
** Current wind speed in m/s (hover to see current wind gust speed)